Time;durP1;ratioP1;P1;durP2;ratioP2;P2;SDS_P1;SDS_P2;PMS_P1;PMS_P2;Temp;Humidity;BMP_temperature;BMP_pressure;BME280_temperature;BME280_humidity;BME280_pressure;Samples;Min_cycle;Max_cycle;Signal;HPM_P1;HPM_P2
2022/02/13 00:02:18;;;;;;;45.40;33.45;;;26.20;90.50;;;;;;1752559;82;21498;-83
2022/02/13 00:04:49;;;;;;;44.27;33.80;;;26.10;90.70;;;;;;1752805;81;21225;-83
2022/02/13 00:07:19;;;;;;;41.63;33.63;;;26.20;90.70;;;;;;1752896;81;21313;-82
2022/02/13 00:09:51;;;;;;;43.15;33.40;;;26.20;90.90;;;;;;1752435;80;21331;-83
2022/02/13 00:12:21;;;;;;;48.02;31.75;;;26.10;90.70;;;;;;1751673;82;21228;-83
2022/02/13 00:14:55;;;;;;;46.92;34.10;;;26.10;90.80;;;;;;1763986;80;21218;-83
2022/02/13 00:17:24;;;;;;;45.95;32.48;;;26.10;90.70;;;;;;1753069;81;21198;-83
2022/02/13 00:19:58;;;;;;;47.65;33.30;;;26.10;90.60;;;;;;1751518;81;21189;-82
2022/02/13 00:22:29;;;;;;;38.83;31.40;;;26.10;90.70;;;;;;1750809;82;21198;-84
2022/02/13 00:25:00;;;;;;;41.68;31.45;;;26.10;90.60;;;;;;1751372;81;21281;-83
2022/02/13 00:27:30;;;;;;;43.55;30.10;;;26.20;90.70;;;;;;1748053;81;21331;-83
2022/02/13 00:30:01;;;;;;;43.00;31.65;;;26.10;90.80;;;;;;1761375;80;21159;-83
2022/02/13 00:32:32;;;;;;;42.78;30.72;;;26.10;90.50;;;;;;1748385;81;21735;-82
2022/02/13 00:35:03;;;;;;;47.85;30.68;;;26.10;90.70;;;;;;1752709;81;21515;-83
2022/02/13 00:37:34;;;;;;;46.50;32.53;;;26.10;90.60;;;;;;1752696;82;21205;-82
2022/02/13 00:40:05;;;;;;;46.25;31.65;;;26.10;90.70;;;;;;1746636;81;21677;-82
2022/02/13 00:42:36;;;;;;;40.35;30.15;;;26.00;90.70;;;;;;1732745;81;21174;-82
2022/02/13 00:45:08;;;;;;;35.50;26.85;;;26.00;90.80;;;;;;1727718;82;21142;-82
2022/02/13 00:47:39;;;;;;;38.02;28.02;;;26.00;90.70;;;;;;1747548;81;21206;-82
2022/02/13 00:50:10;;;;;;;47.83;29.75;;;26.00;90.80;;;;;;1740497;82;21313;-82
2022/02/13 00:52:41;;;;;;;39.50;29.52;;;26.00;90.90;;;;;;1735693;81;21222;-83
2022/02/13 00:55:12;;;;;;;40.08;29.72;;;26.00;90.90;;;;;;1746931;82;21167;-83
2022/02/13 00:57:43;;;;;;;42.93;29.65;;;26.00;90.90;;;;;;1746690;81;21234;-82
2022/02/13 01:00:14;;;;;;;36.88;26.48;;;26.00;90.80;;;;;;1746866;81;21754;-82
2022/02/13 01:02:45;;;;;;;35.83;25.82;;;26.00;90.80;;;;;;1747354;81;21289;-83
2022/02/13 01:05:17;;;;;;;34.33;24.82;;;26.00;90.50;;;;;;1746915;80;21123;-81
2022/02/13 01:07:47;;;;;;;30.77;22.00;;;26.00;90.50;;;;;;1745194;81;21203;-85
2022/02/13 01:10:18;;;;;;;30.57;22.70;;;26.00;90.30;;;;;;1745439;82;21661;-85
2022/02/13 01:12:49;;;;;;;43.78;31.87;;;26.10;90.30;;;;;;1742211;81;21660;-85
2022/02/13 01:15:21;;;;;;;30.60;22.60;;;26.10;90.30;;;;;;1751791;81;21170;-84
2022/02/13 01:17:52;;;;;;;32.08;22.87;;;26.10;90.20;;;;;;1744452;81;21241;-84
2022/02/13 01:20:23;;;;;;;36.17;23.65;;;26.10;90.20;;;;;;1747549;80;21216;-85
2022/02/13 01:22:53;;;;;;;34.35;23.98;;;26.10;90.10;;;;;;1738790;81;21172;-84
2022/02/13 01:25:24;;;;;;;31.27;22.98;;;26.10;90.10;;;;;;1745568;81;21159;-84
2022/02/13 01:27:55;;;;;;;35.28;23.18;;;26.20;90.10;;;;;;1746941;81;21264;-84
2022/02/13 01:30:26;;;;;;;30.77;22.87;;;26.20;90.10;;;;;;1719505;82;21610;-84
2022/02/13 01:32:57;;;;;;;35.28;24.43;;;26.20;90.20;;;;;;1759563;80;21628;-84
2022/02/13 01:35:31;;;;;;;34.75;24.52;;;26.20;90.20;;;;;;1750065;81;21382;-84
2022/02/13 01:38:02;;;;;;;31.57;22.37;;;26.20;90.20;;;;;;1748112;80;21150;-85
2022/02/13 01:40:33;;;;;;;33.95;22.07;;;26.20;90.20;;;;;;1750294;80;21104;-84
2022/02/13 01:43:03;;;;;;;30.97;22.20;;;26.10;90.00;;;;;;1753053;81;21189;-83
2022/02/13 01:45:36;;;;;;;29.63;20.77;;;26.10;90.20;;;;;;1756161;81;21165;-85
2022/02/13 01:48:08;;;;;;;30.35;21.40;;;26.10;90.20;;;;;;1776789;80;21189;-84
2022/02/13 01:50:40;;;;;;;30.37;21.55;;;26.10;90.10;;;;;;1750630;82;21158;-85
2022/02/13 01:53:12;;;;;;;26.70;20.70;;;26.10;90.20;;;;;;1760942;80;21224;-84
2022/02/13 01:55:45;;;;;;;30.23;20.80;;;26.10;90.60;;;;;;1757597;81;21768;-85
2022/02/13 01:58:17;;;;;;;31.85;21.35;;;26.20;90.10;;;;;;1753232;81;21156;-84
2022/02/13 02:00:48;;;;;;;28.25;20.52;;;26.20;90.00;;;;;;1755363;80;21293;-83
2022/02/13 02:03:18;;;;;;;33.80;21.12;;;26.20;89.90;;;;;;1755962;81;21424;-83
2022/02/13 02:05:50;;;;;;;31.00;21.82;;;26.20;89.80;;;;;;1755923;81;21210;-80
2022/02/13 02:08:21;;;;;;;27.00;20.48;;;26.20;90.00;;;;;;1758055;80;21215;-82
2022/02/13 02:10:52;;;;;;;29.90;20.43;;;26.20;89.90;;;;;;1756120;82;21308;-81
2022/02/13 02:13:22;;;;;;;30.55;19.32;;;26.30;89.60;;;;;;1755235;80;21364;-81
2022/02/13 02:15:54;;;;;;;28.07;19.87;;;26.30;89.10;;;;;;1766064;80;21743;-80
2022/02/13 02:18:24;;;;;;;29.30;19.32;;;26.30;88.80;;;;;;1742134;81;22114;-80
2022/02/13 02:21:02;;;;;;;29.40;18.75;;;26.30;88.90;;;;;;1755434;81;21590;-79
2022/02/13 02:23:27;;;;;;;29.02;18.77;;;26.40;88.90;;;;;;1733111;82;21677;-79
2022/02/13 02:25:58;;;;;;;25.55;18.17;;;26.50;88.90;;;;;;1702059;83;21282;-79
2022/02/13 02:28:29;;;;;;;25.57;18.25;;;26.60;88.50;;;;;;1725836;82;21120;-79
2022/02/13 02:31:00;;;;;;;28.42;17.55;;;26.60;88.30;;;;;;1726958;83;21208;-79
2022/02/13 02:33:31;;;;;;;25.35;17.25;;;26.70;87.50;;;;;;1730360;82;21173;-79
2022/02/13 02:36:02;;;;;;;21.45;16.65;;;26.70;87.20;;;;;;1729521;82;21095;-79
2022/02/13 02:38:33;;;;;;;23.92;17.92;;;26.80;87.30;;;;;;1726519;82;21233;-80
2022/02/13 02:41:04;;;;;;;28.85;17.10;;;26.80;86.90;;;;;;1722003;83;21244;-80
2022/02/13 02:43:35;;;;;;;22.98;16.50;;;26.80;86.30;;;;;;1740651;81;21748;-80
2022/02/13 02:46:06;;;;;;;22.70;16.10;;;26.90;86.60;;;;;;1745241;81;21776;-81
2022/02/13 02:48:37;;;;;;;26.25;17.27;;;26.90;87.40;;;;;;1746001;81;21222;-81
2022/02/13 02:51:08;;;;;;;24.20;16.55;;;26.90;86.50;;;;;;1748310;81;21237;-80
2022/02/13 02:53:39;;;;;;;26.82;16.50;;;27.00;86.40;;;;;;1749237;81;21771;-80
2022/02/13 02:56:11;;;;;;;21.23;15.98;;;27.10;85.70;;;;;;1752630;81;21166;-81
2022/02/13 02:58:42;;;;;;;22.30;16.90;;;27.20;85.50;;;;;;1746445;81;21249;-80
2022/02/13 03:01:13;;;;;;;24.63;17.35;;;27.10;85.10;;;;;;1746550;81;21190;-80
2022/02/13 03:03:44;;;;;;;22.20;17.02;;;27.10;85.40;;;;;;1746791;82;21190;-80
2022/02/13 03:06:15;;;;;;;26.50;16.93;;;27.20;85.50;;;;;;1749077;81;21265;-81
2022/02/13 03:08:45;;;;;;;27.13;17.15;;;27.30;85.20;;;;;;1747469;82;21820;-79
2022/02/13 03:11:16;;;;;;;25.82;18.12;;;27.30;85.10;;;;;;1751065;81;21111;-80
2022/02/13 03:13:47;;;;;;;28.07;17.60;;;27.40;85.10;;;;;;1752773;81;21230;-80
2022/02/13 03:16:18;;;;;;;23.75;16.97;;;27.40;85.20;;;;;;1743012;81;22047;-80
2022/02/13 03:18:49;;;;;;;22.50;16.97;;;27.50;84.50;;;;;;1748359;82;21198;-80
2022/02/13 03:21:20;;;;;;;25.55;17.90;;;27.60;84.30;;;;;;1751092;81;21225;-80
2022/02/13 03:23:51;;;;;;;27.55;15.75;;;27.70;84.20;;;;;;1746126;81;21261;-80
2022/02/13 03:26:24;;;;;;;23.62;16.70;;;27.80;84.20;;;;;;1747393;82;21570;-82
2022/02/13 03:28:55;;;;;;;25.23;17.50;;;27.90;83.30;;;;;;1747730;82;21719;-82
2022/02/13 03:31:26;;;;;;;24.55;15.85;;;28.00;82.30;;;;;;1747707;81;21157;-81
2022/02/13 03:33:57;;;;;;;25.82;17.02;;;28.10;81.60;;;;;;1740433;81;21174;-82
2022/02/13 03:36:28;;;;;;;22.50;16.30;;;28.30;81.50;;;;;;1746638;81;21704;-81
2022/02/13 03:38:59;;;;;;;23.87;16.55;;;28.30;81.20;;;;;;1741534;82;21642;-81
2022/02/13 03:41:30;;;;;;;21.05;16.07;;;28.40;81.20;;;;;;1747654;81;21723;-81
2022/02/13 03:44:01;;;;;;;25.35;16.62;;;28.50;81.10;;;;;;1747137;82;21194;-81
2022/02/13 03:46:32;;;;;;;20.62;16.42;;;28.60;81.00;;;;;;1756621;81;21130;-81
2022/02/13 03:49:03;;;;;;;22.52;17.27;;;28.70;80.60;;;;;;1753431;82;21717;-81
2022/02/13 03:51:35;;;;;;;22.65;17.25;;;28.80;79.60;;;;;;1753087;80;21168;-80
2022/02/13 03:54:06;;;;;;;22.35;17.02;;;28.90;80.30;;;;;;1752889;80;21197;-81
2022/02/13 03:56:36;;;;;;;27.13;16.73;;;29.00;79.60;;;;;;1752034;82;21645;-80
2022/02/13 03:59:07;;;;;;;30.55;16.97;;;29.00;79.10;;;;;;1751952;82;21174;-83
2022/02/13 04:01:38;;;;;;;24.12;16.55;;;29.10;80.00;;;;;;1751420;82;22439;-82
2022/02/13 04:04:10;;;;;;;23.57;17.87;;;29.20;79.00;;;;;;1751839;81;21684;-80
2022/02/13 04:06:40;;;;;;;25.60;17.62;;;29.30;78.50;;;;;;1751888;81;21202;-81
2022/02/13 04:09:11;;;;;;;25.17;17.48;;;29.40;77.70;;;;;;1752674;82;21600;-84
2022/02/13 04:11:43;;;;;;;23.55;17.12;;;29.50;77.60;;;;;;1751840;82;21202;-86
2022/02/13 04:14:13;;;;;;;20.68;17.65;;;29.60;77.70;;;;;;1750261;81;21605;-81
2022/02/13 04:16:45;;;;;;;23.15;16.77;;;29.70;76.80;;;;;;1761623;80;21649;-81
2022/02/13 04:19:15;;;;;;;22.95;18.02;;;29.80;77.10;;;;;;1750769;80;21611;-81
2022/02/13 04:21:46;;;;;;;26.23;19.37;;;29.80;76.90;;;;;;1733065;82;21102;-81
2022/02/13 04:24:36;;;;;;;23.35;17.55;;;29.80;76.70;;;;;;1752812;82;21749;-82
2022/02/13 04:27:07;;;;;;;27.32;17.73;;;29.90;76.60;;;;;;1756733;81;21131;-82
2022/02/13 04:29:38;;;;;;;27.17;17.87;;;30.00;75.50;;;;;;1775853;81;21115;-83
2022/02/13 04:32:09;;;;;;;25.75;18.52;;;30.10;75.80;;;;;;1769469;81;21197;-81
2022/02/13 04:34:41;;;;;;;23.90;18.87;;;30.20;75.00;;;;;;1759028;81;21231;-79
2022/02/13 04:37:11;;;;;;;28.02;19.85;;;30.30;74.90;;;;;;1755585;81;21157;-80
2022/02/13 04:39:43;;;;;;;23.80;19.17;;;30.40;75.60;;;;;;1767476;81;21083;-79
2022/02/13 04:42:14;;;;;;;27.05;20.17;;;30.50;73.80;;;;;;1764251;81;21115;-79
2022/02/13 04:44:45;;;;;;;26.90;19.85;;;30.60;74.50;;;;;;1775361;81;21189;-82
2022/02/13 04:47:16;;;;;;;26.07;19.82;;;30.60;72.90;;;;;;1762662;79;21170;-80
2022/02/13 04:49:46;;;;;;;23.18;18.02;;;30.60;73.90;;;;;;1770485;81;21225;-80
2022/02/13 04:52:17;;;;;;;27.27;19.15;;;30.70;73.90;;;;;;1767160;81;21154;-80
2022/02/13 04:54:48;;;;;;;25.52;19.00;;;30.70;72.90;;;;;;1769542;81;21212;-80
2022/02/13 04:57:19;;;;;;;24.72;18.73;;;30.70;72.50;;;;;;1769869;81;21685;-80
2022/02/13 04:59:50;;;;;;;27.25;20.08;;;30.70;72.80;;;;;;1769844;81;21170;-80
2022/02/13 05:02:21;;;;;;;23.70;19.25;;;30.80;72.50;;;;;;1769063;80;21627;-81
2022/02/13 05:04:52;;;;;;;27.80;20.52;;;30.80;72.70;;;;;;1760699;81;21762;-80
2022/02/13 05:07:23;;;;;;;25.20;19.45;;;30.80;72.50;;;;;;1775658;81;21174;-80
2022/02/13 05:09:53;;;;;;;27.45;20.68;;;30.90;72.40;;;;;;1769273;81;21141;-81
2022/02/13 05:12:24;;;;;;;22.30;18.77;;;30.90;71.70;;;;;;1744488;82;21247;-80
2022/02/13 05:14:55;;;;;;;25.50;19.32;;;31.00;71.60;;;;;;1770127;81;21189;-80
2022/02/13 05:17:26;;;;;;;22.00;19.37;;;31.00;71.20;;;;;;1768021;81;21645;-81
2022/02/13 05:19:57;;;;;;;25.57;19.60;;;31.10;71.30;;;;;;1762577;81;21166;-80
2022/02/13 05:22:28;;;;;;;29.20;20.95;;;31.20;71.30;;;;;;1747083;81;21237;-81
2022/02/13 05:24:59;;;;;;;23.83;18.73;;;31.30;71.50;;;;;;1768185;81;21221;-80
2022/02/13 05:27:30;;;;;;;26.17;19.12;;;31.40;70.60;;;;;;1774003;81;21256;-80
2022/02/13 05:30:00;;;;;;;25.48;19.10;;;31.50;70.60;;;;;;1765232;81;21197;-80
2022/02/13 05:32:31;;;;;;;23.47;18.65;;;31.50;69.30;;;;;;1774062;81;21765;-81
2022/02/13 05:35:02;;;;;;;27.07;19.40;;;31.50;70.00;;;;;;1775132;81;21163;-80
2022/02/13 05:37:34;;;;;;;27.93;19.50;;;31.50;69.30;;;;;;1768289;81;21688;-79
2022/02/13 05:40:06;;;;;;;24.40;18.35;;;31.60;69.30;;;;;;1752417;81;21545;-79
2022/02/13 05:42:37;;;;;;;24.52;18.95;;;31.60;69.00;;;;;;1770910;81;21123;-80
2022/02/13 05:45:09;;;;;;;24.90;18.70;;;31.60;69.00;;;;;;1764464;81;21279;-79
2022/02/13 05:47:41;;;;;;;31.05;20.15;;;31.60;68.80;;;;;;1765064;81;21249;-78
2022/02/13 05:50:12;;;;;;;27.48;20.10;;;31.70;69.60;;;;;;1771374;81;21671;-78
2022/02/13 05:52:42;;;;;;;24.07;18.77;;;31.80;69.20;;;;;;1745708;81;21303;-78
2022/02/13 05:55:14;;;;;;;23.85;17.90;;;31.90;68.40;;;;;;1774952;81;21187;-77
2022/02/13 05:57:46;;;;;;;22.90;18.42;;;32.00;69.70;;;;;;1771038;80;21086;-77
2022/02/13 06:00:17;;;;;;;24.77;18.55;;;32.10;67.80;;;;;;1766404;81;21268;-78
2022/02/13 06:02:48;;;;;;;21.95;18.67;;;32.20;67.20;;;;;;1774972;81;21129;-77
2022/02/13 06:05:19;;;;;;;22.07;17.77;;;32.30;66.90;;;;;;1770734;81;22193;-84
2022/02/13 06:07:49;;;;;;;29.23;19.55;;;32.30;66.70;;;;;;1759588;79;21169;-84
2022/02/13 06:10:20;;;;;;;20.43;17.12;;;32.30;66.00;;;;;;1764084;81;21256;-83
2022/02/13 06:12:51;;;;;;;20.82;18.10;;;32.40;66.20;;;;;;1773429;81;21108;-82
2022/02/13 06:15:22;;;;;;;22.48;18.02;;;32.40;65.30;;;;;;1758151;81;21142;-82
2022/02/13 06:17:53;;;;;;;24.57;17.80;;;32.40;65.70;;;;;;1774326;81;21193;-83
2022/02/13 06:20:24;;;;;;;23.98;18.73;;;32.50;65.80;;;;;;1766133;81;21562;-83
2022/02/13 06:22:55;;;;;;;21.87;18.55;;;32.50;65.50;;;;;;1772727;81;21165;-83
2022/02/13 06:25:26;;;;;;;24.70;19.52;;;32.50;65.40;;;;;;1762551;81;21201;-82
2022/02/13 06:27:57;;;;;;;26.35;19.87;;;32.60;64.90;;;;;;1761543;81;21204;-83
2022/02/13 06:30:28;;;;;;;22.85;19.23;;;32.60;66.50;;;;;;1739028;81;21703;-83
2022/02/13 06:33:05;;;;;;;22.80;19.23;;;32.60;64.80;;;;;;1728522;83;21681;-82
2022/02/13 06:35:32;;;;;;;21.68;19.27;;;32.50;65.00;;;;;;1758465;81;21229;-82
2022/02/13 06:38:04;;;;;;;24.05;19.35;;;32.50;65.20;;;;;;1761967;81;21190;-83
2022/02/13 06:40:35;;;;;;;24.35;19.30;;;32.40;65.20;;;;;;1753697;81;21095;-84
2022/02/13 06:43:05;;;;;;;23.62;18.10;;;32.40;64.80;;;;;;1734291;82;21269;-83
2022/02/13 06:45:37;;;;;;;22.52;17.98;;;32.40;65.90;;;;;;1734364;83;21164;-84
2022/02/13 06:48:07;;;;;;;23.42;18.23;;;32.40;66.10;;;;;;1735338;81;21191;-82
2022/02/13 06:50:38;;;;;;;22.10;17.65;;;32.40;66.70;;;;;;1753283;81;21152;-83
2022/02/13 06:53:09;;;;;;;23.05;18.60;;;32.30;66.40;;;;;;1758150;81;21194;-83
2022/02/13 06:55:40;;;;;;;21.90;18.42;;;32.20;67.10;;;;;;1752560;81;21214;-83
2022/02/13 06:58:11;;;;;;;21.30;18.25;;;32.20;66.90;;;;;;1755812;81;21260;-83
2022/02/13 07:00:41;;;;;;;26.10;19.10;;;32.10;67.50;;;;;;1736976;81;21211;-84
2022/02/13 07:03:12;;;;;;;22.82;19.52;;;32.00;67.50;;;;;;1755648;81;21766;-83
2022/02/13 07:05:43;;;;;;;28.17;18.62;;;31.90;67.90;;;;;;1737129;81;21297;-83
2022/02/13 07:08:14;;;;;;;21.50;19.02;;;31.90;67.10;;;;;;1742691;81;21152;-83
2022/02/13 07:10:45;;;;;;;21.50;18.62;;;31.80;67.10;;;;;;1749430;81;21175;-83
2022/02/13 07:13:15;;;;;;;22.35;18.65;;;31.80;66.90;;;;;;1750996;81;21214;-82
2022/02/13 07:15:46;;;;;;;22.50;18.90;;;31.80;67.10;;;;;;1753309;81;21229;-83
2022/02/13 07:18:17;;;;;;;20.80;18.27;;;31.80;67.20;;;;;;1748600;81;21115;-83
2022/02/13 07:20:52;;;;;;;21.42;18.95;;;31.80;66.50;;;;;;1750800;81;21166;-84
2022/02/13 07:23:23;;;;;;;;;;;31.70;67.20;;;;;;1751968;81;21146;-84
2022/02/13 07:25:54;;;;;;;22.80;19.75;;;31.60;67.80;;;;;;1748943;81;20194;-84
2022/02/13 07:30:57;;;;;;;24.25;20.52;;;31.50;67.20;;;;;;1762744;81;21677;-84
2022/02/13 07:33:27;;;;;;;20.95;18.48;;;31.50;67.60;;;;;;1765062;80;21170;-83
2022/02/13 07:35:58;;;;;;;23.65;19.20;;;31.50;68.00;;;;;;1763942;81;21137;-83
2022/02/13 07:38:29;;;;;;;24.35;18.48;;;31.50;67.90;;;;;;1766524;81;21091;-83
2022/02/13 07:41:00;;;;;;;20.82;18.62;;;31.50;68.20;;;;;;1766063;81;21090;-84
2022/02/13 07:43:30;;;;;;;21.77;18.48;;;31.50;68.10;;;;;;1763069;81;21651;-84
2022/02/13 07:46:02;;;;;;;21.00;18.32;;;31.50;68.30;;;;;;1755695;81;21175;-81
2022/02/13 07:49:09;;;;;;;25.97;19.07;;;31.50;68.40;;;;;;1763571;81;21161;-84
2022/02/13 07:51:26;;;;;;;27.02;19.92;;;31.50;68.10;;;;;;1737412;81;21171;-81
2022/02/13 07:53:56;;;;;;;27.75;20.12;;;31.50;68.20;;;;;;1761897;81;21173;-82
2022/02/13 07:56:27;;;;;;;22.90;19.77;;;31.40;67.80;;;;;;1765654;81;21161;-83
2022/02/13 07:58:58;;;;;;;28.15;19.75;;;31.40;68.10;;;;;;1764017;81;21195;-84
2022/02/13 08:01:29;;;;;;;23.05;17.30;;;31.40;68.40;;;;;;1757719;81;21138;-83
2022/02/13 08:04:00;;;;;;;22.55;18.90;;;31.40;68.20;;;;;;1767684;81;21173;-83
2022/02/13 08:06:31;;;;;;;24.30;20.88;;;31.40;68.10;;;;;;1766913;79;21198;-82
2022/02/13 08:09:01;;;;;;;25.65;18.70;;;31.50;68.20;;;;;;1753805;81;21159;-85
2022/02/13 08:11:32;;;;;;;21.05;18.60;;;31.50;68.70;;;;;;1729809;82;21235;-84
2022/02/13 08:14:03;;;;;;;26.37;18.75;;;31.60;68.10;;;;;;1764361;81;21643;-85
2022/02/13 08:16:34;;;;;;;22.48;18.92;;;31.70;67.80;;;;;;1762515;81;21533;-86
2022/02/13 08:19:05;;;;;;;24.35;20.20;;;31.80;67.60;;;;;;1762882;81;21554;-85
2022/02/13 08:21:36;;;;;;;21.37;18.52;;;31.80;67.20;;;;;;1727906;83;21208;-85
2022/02/13 08:24:07;;;;;;;24.43;18.77;;;31.80;67.20;;;;;;1750524;80;21934;-84
2022/02/13 08:26:38;;;;;;;20.55;18.05;;;31.80;67.90;;;;;;1757677;81;21100;-85
2022/02/13 08:29:09;;;;;;;28.38;18.82;;;31.90;67.10;;;;;;1705065;82;21808;-84
2022/02/13 08:31:39;;;;;;;22.82;18.10;;;32.00;67.40;;;;;;1739441;81;21595;-85
2022/02/13 08:34:10;;;;;;;24.50;18.82;;;32.00;67.00;;;;;;1750891;81;21112;-83
2022/02/13 08:36:41;;;;;;;22.60;19.07;;;32.10;66.90;;;;;;1694583;84;21137;-84
2022/02/13 08:39:12;;;;;;;23.60;17.85;;;32.00;66.60;;;;;;1710080;84;21199;-85
2022/02/13 08:41:42;;;;;;;22.17;18.17;;;32.10;66.80;;;;;;1688250;84;21198;-84
2022/02/13 08:44:13;;;;;;;20.70;16.52;;;32.10;66.50;;;;;;1685384;85;21171;-84
2022/02/13 08:46:44;;;;;;;20.12;18.02;;;32.10;66.80;;;;;;1701453;83;22132;-84
2022/02/13 08:49:15;;;;;;;22.60;17.85;;;32.10;66.00;;;;;;1712482;83;21193;-84
2022/02/13 08:51:46;;;;;;;21.52;18.60;;;32.10;66.50;;;;;;1712811;83;21527;-83
2022/02/13 08:54:18;;;;;;;22.52;18.60;;;32.10;66.40;;;;;;1712548;82;21165;-84
2022/02/13 08:56:49;;;;;;;26.95;18.17;;;32.10;66.90;;;;;;1705873;84;21167;-81
2022/02/13 08:59:20;;;;;;;21.17;17.95;;;32.10;66.50;;;;;;1713138;84;21651;-83
2022/02/13 09:01:50;;;;;;;20.10;17.27;;;32.10;66.50;;;;;;1689840;84;21276;-83
2022/02/13 09:04:21;;;;;;;22.45;17.27;;;32.10;66.20;;;;;;1713161;84;21171;-84
2022/02/13 09:06:52;;;;;;;20.62;16.97;;;32.00;65.30;;;;;;1700335;84;21721;-83
2022/02/13 09:09:23;;;;;;;22.37;17.25;;;32.00;66.20;;;;;;1710562;84;21183;-84
2022/02/13 09:11:54;;;;;;;19.75;16.77;;;32.00;65.70;;;;;;1702005;84;21233;-84
2022/02/13 09:14:25;;;;;;;20.15;16.32;;;32.00;66.00;;;;;;1712918;84;21223;-84
2022/02/13 09:16:56;;;;;;;21.75;16.50;;;32.00;66.40;;;;;;1712828;84;21571;-84
2022/02/13 09:19:28;;;;;;;21.93;16.37;;;32.00;66.30;;;;;;1708199;84;21285;-85
2022/02/13 09:21:58;;;;;;;19.05;15.80;;;32.00;66.50;;;;;;1693764;84;21246;-84
2022/02/13 09:24:29;;;;;;;18.32;16.15;;;32.00;66.40;;;;;;1685432;85;21207;-86
2022/02/13 09:27:00;;;;;;;21.37;16.25;;;32.00;66.50;;;;;;1712697;84;21120;-84
2022/02/13 09:29:31;;;;;;;17.20;15.10;;;32.00;67.30;;;;;;1688777;84;21216;-83
2022/02/13 09:32:03;;;;;;;23.83;16.32;;;31.90;66.80;;;;;;1720916;82;21182;-84
2022/02/13 09:34:35;;;;;;;24.25;15.93;;;31.90;67.20;;;;;;1763478;81;21635;-84
2022/02/13 09:37:07;;;;;;;18.48;15.23;;;31.90;67.40;;;;;;1729912;83;21256;-84
2022/02/13 09:39:39;;;;;;;18.15;15.88;;;31.80;67.50;;;;;;1762507;81;21282;-84
2022/02/13 09:42:11;;;;;;;20.05;15.25;;;31.80;67.30;;;;;;1762046;81;21092;-83
2022/02/13 09:44:44;;;;;;;20.65;15.60;;;31.80;67.30;;;;;;1761417;81;21195;-84
2022/02/13 09:47:16;;;;;;;18.75;16.65;;;31.70;67.50;;;;;;1728622;82;21236;-84
2022/02/13 09:49:47;;;;;;;18.30;15.10;;;31.60;67.40;;;;;;1753427;81;21185;-84
2022/02/13 09:52:18;;;;;;;18.15;15.03;;;31.60;67.40;;;;;;1759686;81;21223;-84
2022/02/13 09:54:49;;;;;;;20.25;15.72;;;31.60;67.00;;;;;;1761331;81;21168;-84
2022/02/13 09:59:55;;;;;;;21.20;14.87;;;31.50;66.80;;;;;;1759293;81;21156;-82
2022/02/13 10:02:28;;;;;;;20.48;15.03;;;31.50;66.90;;;;;;1731935;81;21126;-83
2022/02/13 10:04:59;;;;;;;17.62;15.50;;;31.50;67.30;;;;;;1758320;81;22420;-83
2022/02/13 10:07:30;;;;;;;18.02;16.02;;;31.40;67.10;;;;;;1762733;81;21196;-83
2022/02/13 10:10:03;;;;;;;18.42;15.58;;;31.40;67.00;;;;;;1729622;82;21146;-84
2022/02/13 10:12:41;;;;;;;20.35;15.40;;;31.40;67.50;;;;;;1762065;81;21112;-83
2022/02/13 10:15:11;;;;;;;20.00;15.43;;;31.30;67.50;;;;;;1762215;81;21218;-83
2022/02/13 10:17:44;;;;;;;20.05;16.20;;;31.30;67.70;;;;;;1705784;83;21678;-83
2022/02/13 10:20:15;;;;;;;20.30;16.80;;;31.20;67.70;;;;;;1756761;81;21178;-83
2022/02/13 10:22:47;;;;;;;20.65;15.78;;;31.20;67.70;;;;;;1762317;81;21152;-83
2022/02/13 10:25:19;;;;;;;25.25;16.65;;;31.20;67.80;;;;;;1728657;83;21216;-83
2022/02/13 10:27:50;;;;;;;20.40;15.88;;;31.20;67.80;;;;;;1762863;81;21192;-82
2022/02/13 10:30:23;;;;;;;17.48;15.35;;;31.10;67.90;;;;;;1719592;82;21642;-83
2022/02/13 10:32:54;;;;;;;18.92;16.02;;;31.10;67.90;;;;;;1687675;83;21190;-83
2022/02/13 10:35:28;;;;;;;20.77;16.45;;;31.10;68.00;;;;;;1730970;83;22162;-83
2022/02/13 10:38:00;;;;;;;18.95;16.35;;;31.10;67.90;;;;;;1687954;84;21707;-83
2022/02/13 10:40:34;;;;;;;21.27;17.62;;;31.00;67.90;;;;;;1718089;83;21118;-83
2022/02/13 10:43:09;;;;;;;19.40;16.35;;;31.00;68.10;;;;;;1671944;85;21158;-84
2022/02/13 10:45:41;;;;;;;22.25;16.12;;;31.00;68.10;;;;;;1720480;83;21684;-83
2022/02/13 10:48:14;;;;;;;17.87;15.72;;;31.00;68.50;;;;;;1676111;85;21732;-82
2022/02/13 10:50:45;;;;;;;20.15;16.62;;;31.00;68.50;;;;;;1730699;83;21166;-82
2022/02/13 10:53:15;;;;;;;22.10;16.87;;;30.90;68.50;;;;;;1689935;84;21272;-82
2022/02/13 10:55:46;;;;;;;21.55;17.27;;;30.90;68.70;;;;;;1718951;83;21122;-82
2022/02/13 10:58:17;;;;;;;21.23;17.32;;;30.90;68.90;;;;;;1709887;83;21633;-82
2022/02/13 11:00:49;;;;;;;27.48;20.30;;;30.90;69.20;;;;;;1731793;83;21153;-82
2022/02/13 11:03:21;;;;;;;32.55;22.85;;;30.80;69.20;;;;;;1689855;84;21169;-83
2022/02/13 11:05:53;;;;;;;26.20;20.17;;;30.80;69.20;;;;;;1724905;83;21983;-82
2022/02/13 11:08:28;;;;;;;27.32;19.90;;;30.80;69.40;;;;;;1722968;83;21184;-82
2022/02/13 11:10:59;;;;;;;27.87;19.70;;;30.80;69.60;;;;;;1730801;83;21188;-84
2022/02/13 11:13:33;;;;;;;26.73;20.48;;;30.70;69.50;;;;;;1689794;83;21700;-84
2022/02/13 11:16:08;;;;;;;27.00;20.85;;;30.70;69.60;;;;;;1731710;83;21181;-83
2022/02/13 11:18:39;;;;;;;30.08;20.40;;;30.70;69.80;;;;;;1728218;83;21673;-82
2022/02/13 11:21:10;;;;;;;27.90;19.95;;;30.70;69.80;;;;;;1685184;85;21292;-83
2022/02/13 11:23:43;;;;;;;26.82;21.40;;;30.70;70.10;;;;;;1719557;83;21201;-83
2022/02/13 11:26:14;;;;;;;28.25;20.48;;;30.70;70.10;;;;;;1730211;83;21825;-82
2022/02/13 11:28:49;;;;;;;33.02;22.00;;;30.70;70.20;;;;;;1731686;83;21645;-83
2022/02/13 11:31:22;;;;;;;29.37;22.37;;;30.70;70.50;;;;;;1731520;83;21126;-83
2022/02/13 11:33:53;;;;;;;31.87;23.02;;;30.60;70.70;;;;;;1718804;83;22331;-83
2022/02/13 11:36:26;;;;;;;33.18;23.25;;;30.60;71.00;;;;;;1732902;81;21504;-83
2022/02/13 11:38:57;;;;;;;31.95;23.70;;;30.60;71.20;;;;;;1715024;83;21908;-83
2022/02/13 11:41:30;;;;;;;37.88;27.95;;;30.60;71.40;;;;;;1761911;81;21604;-83
2022/02/13 11:44:01;;;;;;;42.33;29.82;;;30.60;71.50;;;;;;1688952;83;21174;-82
2022/02/13 11:46:40;;;;;;;32.00;24.80;;;30.60;71.60;;;;;;1743315;81;21176;-83
2022/02/13 11:49:11;;;;;;;33.42;23.60;;;30.50;71.60;;;;;;1739776;80;21113;-82
2022/02/13 11:51:43;;;;;;;34.88;24.77;;;30.60;71.80;;;;;;1754438;80;21184;-82
2022/02/13 11:54:16;;;;;;;29.23;24.12;;;30.50;71.90;;;;;;1776031;80;21222;-82
2022/02/13 11:56:50;;;;;;;29.70;23.60;;;30.50;71.80;;;;;;1723071;83;21201;-82
2022/02/13 11:59:23;;;;;;;27.87;22.58;;;30.50;71.70;;;;;;1750906;80;21267;-83
2022/02/13 12:01:54;;;;;;;34.23;22.87;;;30.50;71.70;;;;;;1751684;81;21727;-83
2022/02/13 12:04:24;;;;;;;27.35;21.77;;;30.50;71.20;;;;;;1709962;83;21592;-82
2022/02/13 12:06:55;;;;;;;32.30;23.55;;;30.50;71.70;;;;;;1745913;81;21706;-82
2022/02/13 12:09:28;;;;;;;32.48;23.07;;;30.50;71.90;;;;;;1721155;83;21129;-83
2022/02/13 12:11:59;;;;;;;26.12;22.10;;;30.50;71.90;;;;;;1762002;81;21690;-83
2022/02/13 12:14:30;;;;;;;27.58;22.48;;;30.50;72.20;;;;;;1714696;83;21174;-83
2022/02/13 12:17:01;;;;;;;30.27;23.90;;;30.50;72.30;;;;;;1759461;81;21199;-83
2022/02/13 12:19:35;;;;;;;36.40;23.47;;;30.50;72.50;;;;;;1763389;80;21172;-83
2022/02/13 12:22:08;;;;;;;30.97;22.98;;;30.40;72.20;;;;;;1759362;81;21688;-84
2022/02/13 12:24:39;;;;;;;32.08;22.62;;;30.40;72.40;;;;;;1752791;81;21216;-83
2022/02/13 12:27:11;;;;;;;30.90;23.77;;;30.40;72.30;;;;;;1761269;81;21109;-83
2022/02/13 12:29:44;;;;;;;29.87;22.67;;;30.40;72.60;;;;;;1713245;83;21201;-82
2022/02/13 12:32:15;;;;;;;32.50;21.97;;;30.40;72.40;;;;;;1749840;80;21234;-83
2022/02/13 12:34:48;;;;;;;29.98;23.02;;;30.40;72.10;;;;;;1714942;83;21262;-83
2022/02/13 12:37:20;;;;;;;29.77;23.75;;;30.40;72.70;;;;;;1745334;82;21151;-83
2022/02/13 12:39:52;;;;;;;33.55;25.35;;;30.40;72.90;;;;;;1746767;82;21637;-81
2022/02/13 12:42:25;;;;;;;36.35;25.97;;;30.30;73.20;;;;;;1745784;81;21155;-83
2022/02/13 12:44:58;;;;;;;38.02;26.05;;;30.30;73.80;;;;;;1716728;83;21607;-83
2022/02/13 12:47:31;;;;;;;34.60;24.98;;;30.40;74.00;;;;;;1751945;81;21143;-82
2022/02/13 12:50:04;;;;;;;32.05;24.32;;;30.30;74.40;;;;;;1743492;81;21191;-82
2022/02/13 12:52:35;;;;;;;37.50;25.25;;;30.30;74.60;;;;;;1747086;81;21137;-82
2022/02/13 12:55:10;;;;;;;39.83;25.12;;;30.30;75.30;;;;;;1741157;82;21178;-82